Ana Sayfa
METAR-TAF:

METAR-TAF

Havaalanları :

Denpasar, Endonezya

Enlem: 08-44-53S, Boylam: 115-10-03E, yükseklik: 4 m

Güncel hava durumu gözlemi

Rapor saat 03:30 UTC de 54 dakika önce yapıldı.
Rüzgar doğu/güneydoğudan 13 kt, doğu ve güney/güneydoğu arasında değişken
Sıcaklık 29°C
Nem 66%
Basınç 1011 hPa
Görüş mesafesi 10 km veya daha fazla
1700 ft yükseklikte az bulutlu

METAR: WADD 130330Z 12013KT 080V150 9999 FEW017 29/22 Q1011 NOSIG

Saat: 11:24 (04:24 UTC)

Tahmin

Rapor saat 23:00 UTC de 5 saat ve 24 dakika önce yapıldı.
Ayın 13'si saat 00 UTC'den ayın 14'si saat 00 UTC'ye kadar geçerli Tahmin
Rüzgar doğu/güneydoğudan 10 kt
Görüş mesafesi 10 km veya daha fazla
1600 ft yükseklikte parçalı bulutlu

TAF: WADD 122300Z 1300/1400 12010KT 9999 SCT016

4.000'den fazla havaalanı için hava durumu gözlemleri ve tahminleri (METAR ve TAF raporları).

Kullanılabilir istasyonlar harita üzerinde sarı ve kırmızı noktalarla gösterilir.

İstasyonun adını görmek için fareyi noktanın üzerinde gezdirin.

Sonrasında hava gözlem ve tahminlerini görmek için tıklayın.

Haritayı değiştirmek için: yaklaştırmak için siyah artı işaretli yeşil düğmeye ve uzaklaştırmak için de eksi işaretli düğmeye hızla tıklayın; bitişik haritalar için yeşil okları kullanın.


METAR-TAF: